sensor_id;sensor_type;location;lat;lon;timestamp;P1;durP1;ratioP1;P2;durP2;ratioP2
10381;SDS011;11635;53.636;10.120;2023-02-17T00:00:28;72.18;;;53.83;;
10381;SDS011;11635;53.636;10.120;2023-02-17T00:02:56;70.80;;;51.95;;
10381;SDS011;11635;53.636;10.120;2023-02-17T00:05:23;75.30;;;55.55;;
10381;SDS011;11635;53.636;10.120;2023-02-17T00:07:50;77.88;;;55.13;;
10381;SDS011;11635;53.636;10.120;2023-02-17T00:10:16;75.80;;;55.85;;
10381;SDS011;11635;53.636;10.120;2023-02-17T00:12:43;81.93;;;57.05;;
10381;SDS011;11635;53.636;10.120;2023-02-17T00:15:09;79.80;;;57.85;;
10381;SDS011;11635;53.636;10.120;2023-02-17T00:17:35;82.22;;;59.05;;
10381;SDS011;11635;53.636;10.120;2023-02-17T00:20:04;79.47;;;56.28;;
10381;SDS011;11635;53.636;10.120;2023-02-17T00:22:30;80.35;;;59.58;;
10381;SDS011;11635;53.636;10.120;2023-02-17T00:24:57;86.78;;;62.58;;
10381;SDS011;11635;53.636;10.120;2023-02-17T00:27:23;84.15;;;60.88;;
10381;SDS011;11635;53.636;10.120;2023-02-17T00:29:49;83.75;;;59.75;;
10381;SDS011;11635;53.636;10.120;2023-02-17T00:32:15;86.50;;;61.05;;
10381;SDS011;11635;53.636;10.120;2023-02-17T00:34:42;79.47;;;59.20;;
10381;SDS011;11635;53.636;10.120;2023-02-17T00:37:10;81.00;;;59.97;;
10381;SDS011;11635;53.636;10.120;2023-02-17T00:39:36;80.50;;;58.08;;
10381;SDS011;11635;53.636;10.120;2023-02-17T00:42:02;82.55;;;59.78;;
10381;SDS011;11635;53.636;10.120;2023-02-17T00:44:29;76.03;;;59.55;;
10381;SDS011;11635;53.636;10.120;2023-02-17T00:46:55;81.85;;;60.80;;
10381;SDS011;11635;53.636;10.120;2023-02-17T00:49:22;82.13;;;60.22;;
10381;SDS011;11635;53.636;10.120;2023-02-17T00:51:49;81.53;;;60.45;;
10381;SDS011;11635;53.636;10.120;2023-02-17T00:54:17;81.72;;;60.08;;
10381;SDS011;11635;53.636;10.120;2023-02-17T00:56:43;79.72;;;59.17;;
10381;SDS011;11635;53.636;10.120;2023-02-17T00:59:10;83.43;;;58.55;;
10381;SDS011;11635;53.636;10.120;2023-02-17T01:01:37;80.15;;;58.25;;
10381;SDS011;11635;53.636;10.120;2023-02-17T01:04:04;76.95;;;58.30;;
10381;SDS011;11635;53.636;10.120;2023-02-17T01:06:31;80.43;;;58.45;;
10381;SDS011;11635;53.636;10.120;2023-02-17T01:08:58;78.72;;;56.72;;
10381;SDS011;11635;53.636;10.120;2023-02-17T01:11:26;78.85;;;57.83;;
10381;SDS011;11635;53.636;10.120;2023-02-17T01:13:54;76.22;;;56.78;;
10381;SDS011;11635;53.636;10.120;2023-02-17T01:16:21;75.53;;;55.05;;
10381;SDS011;11635;53.636;10.120;2023-02-17T01:18:48;71.15;;;53.00;;
10381;SDS011;11635;53.636;10.120;2023-02-17T01:21:15;70.57;;;52.53;;
10381;SDS011;11635;53.636;10.120;2023-02-17T01:23:41;71.75;;;52.67;;
10381;SDS011;11635;53.636;10.120;2023-02-17T01:26:11;72.28;;;51.28;;
10381;SDS011;11635;53.636;10.120;2023-02-17T01:28:39;66.78;;;51.15;;
10381;SDS011;11635;53.636;10.120;2023-02-17T01:31:05;67.40;;;49.33;;
10381;SDS011;11635;53.636;10.120;2023-02-17T01:33:32;63.67;;;48.22;;
10381;SDS011;11635;53.636;10.120;2023-02-17T01:36:00;63.75;;;48.20;;
10381;SDS011;11635;53.636;10.120;2023-02-17T01:38:26;67.03;;;48.58;;
10381;SDS011;11635;53.636;10.120;2023-02-17T01:40:52;64.63;;;48.20;;
10381;SDS011;11635;53.636;10.120;2023-02-17T01:43:19;64.75;;;47.60;;
10381;SDS011;11635;53.636;10.120;2023-02-17T01:45:47;69.60;;;50.00;;
10381;SDS011;11635;53.636;10.120;2023-02-17T01:48:14;63.47;;;45.97;;
10381;SDS011;11635;53.636;10.120;2023-02-17T01:50:43;65.45;;;47.05;;
10381;SDS011;11635;53.636;10.120;2023-02-17T01:53:11;64.05;;;46.42;;
10381;SDS011;11635;53.636;10.120;2023-02-17T01:55:39;67.35;;;47.60;;
10381;SDS011;11635;53.636;10.120;2023-02-17T01:58:06;66.35;;;48.40;;
10381;SDS011;11635;53.636;10.120;2023-02-17T02:00:33;66.40;;;48.25;;
10381;SDS011;11635;53.636;10.120;2023-02-17T02:03:02;67.00;;;48.75;;
10381;SDS011;11635;53.636;10.120;2023-02-17T02:05:29;67.40;;;48.00;;
10381;SDS011;11635;53.636;10.120;2023-02-17T02:07:55;70.45;;;48.80;;
10381;SDS011;11635;53.636;10.120;2023-02-17T02:10:22;73.72;;;50.42;;
10381;SDS011;11635;53.636;10.120;2023-02-17T02:12:48;67.85;;;48.22;;
10381;SDS011;11635;53.636;10.120;2023-02-17T02:15:15;69.05;;;48.25;;
10381;SDS011;11635;53.636;10.120;2023-02-17T02:17:46;70.75;;;48.03;;
10381;SDS011;11635;53.636;10.120;2023-02-17T02:23:16;68.22;;;49.47;;
10381;SDS011;11635;53.636;10.120;2023-02-17T02:25:58;70.10;;;48.97;;
10381;SDS011;11635;53.636;10.120;2023-02-17T02:28:32;68.45;;;49.55;;
10381;SDS011;11635;53.636;10.120;2023-02-17T02:31:06;69.85;;;48.80;;
10381;SDS011;11635;53.636;10.120;2023-02-17T02:33:39;73.47;;;49.63;;
10381;SDS011;11635;53.636;10.120;2023-02-17T02:36:09;72.72;;;48.72;;
10381;SDS011;11635;53.636;10.120;2023-02-17T02:38:37;71.45;;;47.92;;
10381;SDS011;11635;53.636;10.120;2023-02-17T02:41:06;69.90;;;47.15;;
10381;SDS011;11635;53.636;10.120;2023-02-17T02:43:34;65.78;;;47.40;;
10381;SDS011;11635;53.636;10.120;2023-02-17T02:46:00;66.70;;;46.97;;
10381;SDS011;11635;53.636;10.120;2023-02-17T02:48:27;66.07;;;47.47;;
10381;SDS011;11635;53.636;10.120;2023-02-17T02:53:43;65.28;;;45.58;;
10381;SDS011;11635;53.636;10.120;2023-02-17T02:56:13;67.45;;;46.47;;
10381;SDS011;11635;53.636;10.120;2023-02-17T02:58:44;64.78;;;45.20;;
10381;SDS011;11635;53.636;10.120;2023-02-17T03:01:16;63.70;;;46.83;;
10381;SDS011;11635;53.636;10.120;2023-02-17T03:03:45;68.35;;;47.47;;
10381;SDS011;11635;53.636;10.120;2023-02-17T03:06:14;65.88;;;45.53;;
10381;SDS011;11635;53.636;10.120;2023-02-17T03:08:44;68.28;;;46.88;;
10381;SDS011;11635;53.636;10.120;2023-02-17T03:11:12;64.60;;;45.42;;
10381;SDS011;11635;53.636;10.120;2023-02-17T03:13:39;61.70;;;44.42;;
10381;SDS011;11635;53.636;10.120;2023-02-17T03:16:06;60.63;;;43.20;;
10381;SDS011;11635;53.636;10.120;2023-02-17T03:18:33;63.65;;;45.38;;
10381;SDS011;11635;53.636;10.120;2023-02-17T03:21:00;65.43;;;45.35;;
10381;SDS011;11635;53.636;10.120;2023-02-17T03:23:27;63.58;;;43.40;;
10381;SDS011;11635;53.636;10.120;2023-02-17T03:25:55;66.72;;;47.08;;
10381;SDS011;11635;53.636;10.120;2023-02-17T03:28:22;63.38;;;43.03;;
10381;SDS011;11635;53.636;10.120;2023-02-17T03:30:49;60.92;;;44.42;;
10381;SDS011;11635;53.636;10.120;2023-02-17T03:33:15;63.05;;;43.67;;
10381;SDS011;11635;53.636;10.120;2023-02-17T03:35:41;63.80;;;44.80;;
10381;SDS011;11635;53.636;10.120;2023-02-17T03:38:08;65.07;;;42.83;;
10381;SDS011;11635;53.636;10.120;2023-02-17T03:40:34;68.82;;;46.35;;
10381;SDS011;11635;53.636;10.120;2023-02-17T03:43:02;69.50;;;46.58;;
10381;SDS011;11635;53.636;10.120;2023-02-17T03:45:28;68.53;;;43.60;;
10381;SDS011;11635;53.636;10.120;2023-02-17T03:47:55;68.15;;;46.67;;
10381;SDS011;11635;53.636;10.120;2023-02-17T03:50:21;64.80;;;44.85;;
10381;SDS011;11635;53.636;10.120;2023-02-17T03:52:47;63.05;;;42.80;;
10381;SDS011;11635;53.636;10.120;2023-02-17T03:55:13;61.90;;;43.42;;
10381;SDS011;11635;53.636;10.120;2023-02-17T03:57:40;62.88;;;42.80;;
10381;SDS011;11635;53.636;10.120;2023-02-17T04:00:08;63.80;;;42.05;;
10381;SDS011;11635;53.636;10.120;2023-02-17T04:02:34;57.75;;;40.10;;
10381;SDS011;11635;53.636;10.120;2023-02-17T04:05:01;62.03;;;41.03;;
10381;SDS011;11635;53.636;10.120;2023-02-17T04:07:27;59.15;;;40.42;;
10381;SDS011;11635;53.636;10.120;2023-02-17T04:09:54;60.28;;;40.05;;
10381;SDS011;11635;53.636;10.120;2023-02-17T04:12:20;57.78;;;38.00;;
10381;SDS011;11635;53.636;10.120;2023-02-17T04:14:46;52.78;;;36.83;;
10381;SDS011;11635;53.636;10.120;2023-02-17T04:17:14;50.08;;;36.83;;
10381;SDS011;11635;53.636;10.120;2023-02-17T04:19:40;48.92;;;34.25;;
10381;SDS011;11635;53.636;10.120;2023-02-17T04:22:06;48.92;;;33.20;;
10381;SDS011;11635;53.636;10.120;2023-02-17T04:24:33;47.25;;;33.38;;
10381;SDS011;11635;53.636;10.120;2023-02-17T04:26:59;49.53;;;34.17;;
10381;SDS011;11635;53.636;10.120;2023-02-17T04:29:26;46.35;;;32.47;;
10381;SDS011;11635;53.636;10.120;2023-02-17T04:31:52;46.85;;;32.45;;
10381;SDS011;11635;53.636;10.120;2023-02-17T04:34:20;46.25;;;32.70;;
10381;SDS011;11635;53.636;10.120;2023-02-17T04:36:46;47.30;;;32.30;;
10381;SDS011;11635;53.636;10.120;2023-02-17T04:39:13;43.42;;;30.50;;
10381;SDS011;11635;53.636;10.120;2023-02-17T04:41:39;43.72;;;31.60;;
10381;SDS011;11635;53.636;10.120;2023-02-17T04:44:05;45.67;;;32.22;;
10381;SDS011;11635;53.636;10.120;2023-02-17T04:46:32;49.08;;;32.85;;
10381;SDS011;11635;53.636;10.120;2023-02-17T04:48:58;53.78;;;36.17;;
10381;SDS011;11635;53.636;10.120;2023-02-17T04:51:27;49.05;;;33.67;;
10381;SDS011;11635;53.636;10.120;2023-02-17T04:53:53;50.53;;;34.28;;
10381;SDS011;11635;53.636;10.120;2023-02-17T04:56:20;53.13;;;35.65;;
10381;SDS011;11635;53.636;10.120;2023-02-17T04:58:46;53.10;;;35.10;;
10381;SDS011;11635;53.636;10.120;2023-02-17T05:01:12;53.55;;;34.50;;
10381;SDS011;11635;53.636;10.120;2023-02-17T05:03:38;51.97;;;34.33;;
10381;SDS011;11635;53.636;10.120;2023-02-17T05:06:06;52.20;;;35.65;;
10381;SDS011;11635;53.636;10.120;2023-02-17T05:08:33;52.80;;;33.95;;
10381;SDS011;11635;53.636;10.120;2023-02-17T05:11:00;50.72;;;33.30;;
10381;SDS011;11635;53.636;10.120;2023-02-17T05:13:26;52.13;;;33.50;;
10381;SDS011;11635;53.636;10.120;2023-02-17T05:15:52;50.25;;;32.97;;
10381;SDS011;11635;53.636;10.120;2023-02-17T05:18:19;54.88;;;34.13;;
10381;SDS011;11635;53.636;10.120;2023-02-17T05:20:45;55.17;;;34.53;;
10381;SDS011;11635;53.636;10.120;2023-02-17T05:23:11;58.10;;;35.88;;
10381;SDS011;11635;53.636;10.120;2023-02-17T05:25:39;53.83;;;34.80;;
10381;SDS011;11635;53.636;10.120;2023-02-17T05:28:05;61.92;;;37.35;;
10381;SDS011;11635;53.636;10.120;2023-02-17T05:30:32;56.00;;;34.80;;
10381;SDS011;11635;53.636;10.120;2023-02-17T05:32:58;53.80;;;33.63;;
10381;SDS011;11635;53.636;10.120;2023-02-17T05:35:24;59.15;;;35.78;;
10381;SDS011;11635;53.636;10.120;2023-02-17T05:37:51;60.65;;;34.85;;
10381;SDS011;11635;53.636;10.120;2023-02-17T05:40:17;59.58;;;35.45;;
10381;SDS011;11635;53.636;10.120;2023-02-17T05:42:45;56.63;;;35.45;;
10381;SDS011;11635;53.636;10.120;2023-02-17T05:45:11;59.60;;;34.83;;
10381;SDS011;11635;53.636;10.120;2023-02-17T05:47:37;57.58;;;35.08;;
10381;SDS011;11635;53.636;10.120;2023-02-17T05:50:04;55.25;;;33.72;;
10381;SDS011;11635;53.636;10.120;2023-02-17T05:52:31;55.65;;;32.90;;
10381;SDS011;11635;53.636;10.120;2023-02-17T05:54:57;53.85;;;32.03;;
10381;SDS011;11635;53.636;10.120;2023-02-17T05:57:23;53.53;;;31.48;;
10381;SDS011;11635;53.636;10.120;2023-02-17T05:59:51;52.13;;;30.08;;
10381;SDS011;11635;53.636;10.120;2023-02-17T06:02:17;55.33;;;31.33;;
10381;SDS011;11635;53.636;10.120;2023-02-17T06:04:45;50.03;;;29.27;;
10381;SDS011;11635;53.636;10.120;2023-02-17T06:07:11;48.20;;;27.85;;
10381;SDS011;11635;53.636;10.120;2023-02-17T06:09:37;52.10;;;30.17;;
10381;SDS011;11635;53.636;10.120;2023-02-17T06:12:04;51.97;;;30.55;;
10381;SDS011;11635;53.636;10.120;2023-02-17T06:14:30;55.33;;;29.92;;
10381;SDS011;11635;53.636;10.120;2023-02-17T06:16:58;55.78;;;31.92;;
10381;SDS011;11635;53.636;10.120;2023-02-17T06:19:25;57.13;;;32.17;;
10381;SDS011;11635;53.636;10.120;2023-02-17T06:21:52;55.40;;;30.70;;
10381;SDS011;11635;53.636;10.120;2023-02-17T06:24:20;59.45;;;30.75;;
10381;SDS011;11635;53.636;10.120;2023-02-17T06:26:46;55.97;;;32.78;;
10381;SDS011;11635;53.636;10.120;2023-02-17T06:29:13;63.38;;;33.47;;
10381;SDS011;11635;53.636;10.120;2023-02-17T06:31:39;63.97;;;32.72;;
10381;SDS011;11635;53.636;10.120;2023-02-17T06:34:07;61.75;;;33.15;;
10381;SDS011;11635;53.636;10.120;2023-02-17T06:36:33;58.17;;;31.55;;
10381;SDS011;11635;53.636;10.120;2023-02-17T06:39:00;57.88;;;31.63;;
10381;SDS011;11635;53.636;10.120;2023-02-17T06:41:28;56.88;;;31.83;;
10381;SDS011;11635;53.636;10.120;2023-02-17T06:43:56;55.63;;;30.52;;
10381;SDS011;11635;53.636;10.120;2023-02-17T06:46:22;54.47;;;29.52;;
10381;SDS011;11635;53.636;10.120;2023-02-17T06:48:50;56.70;;;31.05;;
10381;SDS011;11635;53.636;10.120;2023-02-17T06:51:21;59.80;;;31.42;;
10381;SDS011;11635;53.636;10.120;2023-02-17T06:53:48;57.53;;;30.20;;
10381;SDS011;11635;53.636;10.120;2023-02-17T06:56:14;59.10;;;30.73;;
10381;SDS011;11635;53.636;10.120;2023-02-17T06:58:40;57.70;;;30.70;;
10381;SDS011;11635;53.636;10.120;2023-02-17T07:01:13;62.03;;;32.05;;
10381;SDS011;11635;53.636;10.120;2023-02-17T07:03:40;64.43;;;32.92;;
10381;SDS011;11635;53.636;10.120;2023-02-17T07:06:07;57.50;;;30.55;;
10381;SDS011;11635;53.636;10.120;2023-02-17T07:08:35;67.35;;;33.88;;
10381;SDS011;11635;53.636;10.120;2023-02-17T07:11:03;62.15;;;34.70;;
10381;SDS011;11635;53.636;10.120;2023-02-17T07:13:30;78.93;;;38.45;;
10381;SDS011;11635;53.636;10.120;2023-02-17T07:15:57;65.55;;;34.88;;
10381;SDS011;11635;53.636;10.120;2023-02-17T07:18:23;63.85;;;35.03;;
10381;SDS011;11635;53.636;10.120;2023-02-17T07:20:51;65.93;;;35.75;;
10381;SDS011;11635;53.636;10.120;2023-02-17T07:23:19;72.70;;;37.20;;
10381;SDS011;11635;53.636;10.120;2023-02-17T07:25:49;75.00;;;38.35;;
10381;SDS011;11635;53.636;10.120;2023-02-17T07:28:17;75.15;;;36.80;;
10381;SDS011;11635;53.636;10.120;2023-02-17T07:30:45;74.50;;;38.22;;
10381;SDS011;11635;53.636;10.120;2023-02-17T07:33:12;69.70;;;36.97;;
10381;SDS011;11635;53.636;10.120;2023-02-17T07:35:45;72.82;;;36.92;;
10381;SDS011;11635;53.636;10.120;2023-02-17T07:38:18;73.85;;;37.72;;
10381;SDS011;11635;53.636;10.120;2023-02-17T07:40:49;76.05;;;38.13;;
10381;SDS011;11635;53.636;10.120;2023-02-17T07:43:15;76.03;;;39.83;;
10381;SDS011;11635;53.636;10.120;2023-02-17T07:45:41;72.93;;;37.13;;
10381;SDS011;11635;53.636;10.120;2023-02-17T07:48:09;70.35;;;38.03;;
10381;SDS011;11635;53.636;10.120;2023-02-17T07:50:41;82.22;;;39.53;;
10381;SDS011;11635;53.636;10.120;2023-02-17T07:53:07;72.13;;;36.20;;
10381;SDS011;11635;53.636;10.120;2023-02-17T07:55:35;75.60;;;37.50;;
10381;SDS011;11635;53.636;10.120;2023-02-17T07:58:03;79.70;;;38.63;;
10381;SDS011;11635;53.636;10.120;2023-02-17T08:00:29;76.28;;;39.13;;
10381;SDS011;11635;53.636;10.120;2023-02-17T08:02:58;73.70;;;38.00;;
10381;SDS011;11635;53.636;10.120;2023-02-17T08:05:26;74.72;;;38.55;;
10381;SDS011;11635;53.636;10.120;2023-02-17T08:07:53;81.47;;;39.72;;
10381;SDS011;11635;53.636;10.120;2023-02-17T08:10:35;77.55;;;38.13;;
10381;SDS011;11635;53.636;10.120;2023-02-17T08:13:25;78.57;;;39.88;;
10381;SDS011;11635;53.636;10.120;2023-02-17T08:16:00;77.85;;;38.78;;
10381;SDS011;11635;53.636;10.120;2023-02-17T08:18:28;67.53;;;36.22;;
10381;SDS011;11635;53.636;10.120;2023-02-17T08:20:56;63.97;;;34.97;;
10381;SDS011;11635;53.636;10.120;2023-02-17T08:23:23;69.03;;;36.40;;
10381;SDS011;11635;53.636;10.120;2023-02-17T08:25:55;66.75;;;34.83;;
10381;SDS011;11635;53.636;10.120;2023-02-17T08:28:21;60.85;;;33.25;;
10381;SDS011;11635;53.636;10.120;2023-02-17T08:30:52;57.55;;;30.83;;
10381;SDS011;11635;53.636;10.120;2023-02-17T08:33:19;57.35;;;31.45;;
10381;SDS011;11635;53.636;10.120;2023-02-17T08:35:47;52.03;;;29.58;;
10381;SDS011;11635;53.636;10.120;2023-02-17T08:38:14;57.65;;;30.63;;
10381;SDS011;11635;53.636;10.120;2023-02-17T08:40:40;56.92;;;31.52;;
10381;SDS011;11635;53.636;10.120;2023-02-17T08:43:07;52.35;;;30.77;;
10381;SDS011;11635;53.636;10.120;2023-02-17T08:45:34;54.40;;;29.42;;
10381;SDS011;11635;53.636;10.120;2023-02-17T08:48:03;49.13;;;28.27;;
10381;SDS011;11635;53.636;10.120;2023-02-17T08:50:32;45.50;;;27.23;;
10381;SDS011;11635;53.636;10.120;2023-02-17T08:53:00;46.53;;;26.83;;
10381;SDS011;11635;53.636;10.120;2023-02-17T08:55:26;51.25;;;28.10;;
10381;SDS011;11635;53.636;10.120;2023-02-17T08:57:53;46.33;;;27.08;;
10381;SDS011;11635;53.636;10.120;2023-02-17T09:00:20;46.15;;;26.77;;
10381;SDS011;11635;53.636;10.120;2023-02-17T09:02:47;46.50;;;27.85;;
10381;SDS011;11635;53.636;10.120;2023-02-17T09:05:16;46.38;;;27.10;;
10381;SDS011;11635;53.636;10.120;2023-02-17T09:07:46;51.42;;;27.98;;
10381;SDS011;11635;53.636;10.120;2023-02-17T09:10:13;46.30;;;28.20;;
10381;SDS011;11635;53.636;10.120;2023-02-17T09:12:40;45.80;;;28.52;;
10381;SDS011;11635;53.636;10.120;2023-02-17T09:15:07;47.03;;;27.88;;
10381;SDS011;11635;53.636;10.120;2023-02-17T09:17:37;56.67;;;30.35;;
10381;SDS011;11635;53.636;10.120;2023-02-17T09:20:07;48.50;;;28.48;;
10381;SDS011;11635;53.636;10.120;2023-02-17T09:22:39;47.60;;;27.92;;
10381;SDS011;11635;53.636;10.120;2023-02-17T09:25:06;44.35;;;26.67;;
10381;SDS011;11635;53.636;10.120;2023-02-17T09:27:34;42.70;;;23.17;;
10381;SDS011;11635;53.636;10.120;2023-02-17T09:30:02;46.88;;;26.27;;
10381;SDS011;11635;53.636;10.120;2023-02-17T09:32:29;42.17;;;25.85;;
10381;SDS011;11635;53.636;10.120;2023-02-17T09:34:56;41.20;;;24.52;;
10381;SDS011;11635;53.636;10.120;2023-02-17T09:37:25;39.75;;;24.75;;
10381;SDS011;11635;53.636;10.120;2023-02-17T09:39:54;44.75;;;25.38;;
10381;SDS011;11635;53.636;10.120;2023-02-17T09:42:23;40.47;;;25.05;;
10381;SDS011;11635;53.636;10.120;2023-02-17T09:44:51;45.38;;;27.10;;
10381;SDS011;11635;53.636;10.120;2023-02-17T09:47:21;47.47;;;27.63;;
10381;SDS011;11635;53.636;10.120;2023-02-17T09:49:49;44.60;;;26.17;;
10381;SDS011;11635;53.636;10.120;2023-02-17T09:52:17;43.92;;;25.02;;
10381;SDS011;11635;53.636;10.120;2023-02-17T09:54:50;43.22;;;24.55;;
10381;SDS011;11635;53.636;10.120;2023-02-17T09:57:20;38.88;;;24.25;;
10381;SDS011;11635;53.636;10.120;2023-02-17T09:59:50;43.42;;;24.08;;
10381;SDS011;11635;53.636;10.120;2023-02-17T10:02:18;37.53;;;21.25;;
10381;SDS011;11635;53.636;10.120;2023-02-17T10:04:48;39.55;;;23.80;;
10381;SDS011;11635;53.636;10.120;2023-02-17T10:07:19;41.67;;;24.25;;
10381;SDS011;11635;53.636;10.120;2023-02-17T10:09:48;39.15;;;23.38;;
10381;SDS011;11635;53.636;10.120;2023-02-17T10:12:17;39.28;;;23.60;;
10381;SDS011;11635;53.636;10.120;2023-02-17T10:14:47;38.63;;;22.20;;
10381;SDS011;11635;53.636;10.120;2023-02-17T10:17:16;41.75;;;24.67;;
10381;SDS011;11635;53.636;10.120;2023-02-17T10:19:46;41.28;;;22.80;;
10381;SDS011;11635;53.636;10.120;2023-02-17T10:22:17;40.03;;;22.65;;
10381;SDS011;11635;53.636;10.120;2023-02-17T10:24:43;34.72;;;21.17;;
10381;SDS011;11635;53.636;10.120;2023-02-17T10:27:19;36.63;;;20.42;;
10381;SDS011;11635;53.636;10.120;2023-02-17T10:29:53;32.75;;;19.73;;
10381;SDS011;11635;53.636;10.120;2023-02-17T10:32:23;35.47;;;19.67;;
10381;SDS011;11635;53.636;10.120;2023-02-17T10:34:52;31.92;;;18.55;;
10381;SDS011;11635;53.636;10.120;2023-02-17T10:37:23;35.53;;;19.63;;
10381;SDS011;11635;53.636;10.120;2023-02-17T10:39:52;36.60;;;18.27;;
10381;SDS011;11635;53.636;10.120;2023-02-17T10:42:24;30.77;;;17.73;;
10381;SDS011;11635;53.636;10.120;2023-02-17T10:44:54;36.40;;;20.25;;
10381;SDS011;11635;53.636;10.120;2023-02-17T10:47:23;33.90;;;19.02;;
10381;SDS011;11635;53.636;10.120;2023-02-17T10:49:50;39.67;;;20.85;;
10381;SDS011;11635;53.636;10.120;2023-02-17T10:52:17;35.47;;;19.88;;
10381;SDS011;11635;53.636;10.120;2023-02-17T10:54:45;36.35;;;20.38;;
10381;SDS011;11635;53.636;10.120;2023-02-17T10:57:13;38.78;;;20.58;;
10381;SDS011;11635;53.636;10.120;2023-02-17T10:59:42;38.90;;;19.88;;
10381;SDS011;11635;53.636;10.120;2023-02-17T11:02:15;37.33;;;20.23;;
10381;SDS011;11635;53.636;10.120;2023-02-17T11:04:42;34.55;;;18.73;;
10381;SDS011;11635;53.636;10.120;2023-02-17T11:07:09;36.50;;;19.58;;
10381;SDS011;11635;53.636;10.120;2023-02-17T11:09:38;36.35;;;18.95;;
10381;SDS011;11635;53.636;10.120;2023-02-17T11:12:09;36.67;;;19.20;;
10381;SDS011;11635;53.636;10.120;2023-02-17T11:14:36;35.15;;;18.88;;
10381;SDS011;11635;53.636;10.120;2023-02-17T11:17:10;35.38;;;20.02;;
10381;SDS011;11635;53.636;10.120;2023-02-17T11:19:39;37.53;;;21.25;;
10381;SDS011;11635;53.636;10.120;2023-02-17T11:22:17;36.88;;;20.75;;
10381;SDS011;11635;53.636;10.120;2023-02-17T11:24:56;38.13;;;19.58;;
10381;SDS011;11635;53.636;10.120;2023-02-17T11:27:23;38.35;;;20.45;;
10381;SDS011;11635;53.636;10.120;2023-02-17T11:29:49;35.65;;;18.73;;
10381;SDS011;11635;53.636;10.120;2023-02-17T11:32:16;37.63;;;19.50;;
10381;SDS011;11635;53.636;10.120;2023-02-17T11:34:54;37.95;;;18.67;;
10381;SDS011;11635;53.636;10.120;2023-02-17T11:37:22;35.53;;;18.80;;
10381;SDS011;11635;53.636;10.120;2023-02-17T11:39:51;33.65;;;18.98;;
10381;SDS011;11635;53.636;10.120;2023-02-17T11:42:19;34.90;;;18.85;;
10381;SDS011;11635;53.636;10.120;2023-02-17T11:44:46;36.75;;;19.23;;
10381;SDS011;11635;53.636;10.120;2023-02-17T11:47:14;37.05;;;18.50;;
10381;SDS011;11635;53.636;10.120;2023-02-17T11:49:47;34.22;;;18.05;;
10381;SDS011;11635;53.636;10.120;2023-02-17T11:52:23;33.65;;;19.23;;
10381;SDS011;11635;53.636;10.120;2023-02-17T11:54:57;33.47;;;19.33;;
10381;SDS011;11635;53.636;10.120;2023-02-17T11:57:34;35.38;;;19.60;;
10381;SDS011;11635;53.636;10.120;2023-02-17T12:00:09;35.45;;;18.60;;
10381;SDS011;11635;53.636;10.120;2023-02-17T12:05:25;33.97;;;18.00;;
10381;SDS011;11635;53.636;10.120;2023-02-17T12:07:57;30.05;;;17.45;;
10381;SDS011;11635;53.636;10.120;2023-02-17T12:10:29;34.83;;;18.00;;
10381;SDS011;11635;53.636;10.120;2023-02-17T12:13:04;29.63;;;16.15;;
10381;SDS011;11635;53.636;10.120;2023-02-17T12:15:39;30.67;;;15.75;;
10381;SDS011;11635;53.636;10.120;2023-02-17T12:18:11;27.20;;;16.13;;
10381;SDS011;11635;53.636;10.120;2023-02-17T12:20:46;29.77;;;15.45;;
10381;SDS011;11635;53.636;10.120;2023-02-17T12:23:18;29.60;;;16.25;;
10381;SDS011;11635;53.636;10.120;2023-02-17T12:25:48;28.65;;;17.20;;
10381;SDS011;11635;53.636;10.120;2023-02-17T12:28:28;27.58;;;15.90;;
10381;SDS011;11635;53.636;10.120;2023-02-17T12:31:01;31.42;;;16.13;;
10381;SDS011;11635;53.636;10.120;2023-02-17T12:33:41;27.08;;;15.82;;
10381;SDS011;11635;53.636;10.120;2023-02-17T12:36:11;30.15;;;16.52;;
10381;SDS011;11635;53.636;10.120;2023-02-17T12:38:40;28.25;;;15.50;;
10381;SDS011;11635;53.636;10.120;2023-02-17T12:41:09;30.00;;;17.48;;
10381;SDS011;11635;53.636;10.120;2023-02-17T12:43:38;27.92;;;14.93;;
10381;SDS011;11635;53.636;10.120;2023-02-17T12:46:08;28.10;;;15.35;;
10381;SDS011;11635;53.636;10.120;2023-02-17T12:48:37;25.55;;;14.70;;
10381;SDS011;11635;53.636;10.120;2023-02-17T12:51:05;30.08;;;15.38;;
10381;SDS011;11635;53.636;10.120;2023-02-17T12:53:39;28.80;;;14.20;;
10381;SDS011;11635;53.636;10.120;2023-02-17T12:56:14;24.40;;;13.95;;
10381;SDS011;11635;53.636;10.120;2023-02-17T12:58:45;28.48;;;14.23;;
10381;SDS011;11635;53.636;10.120;2023-02-17T13:01:12;22.90;;;13.48;;
10381;SDS011;11635;53.636;10.120;2023-02-17T13:03:40;22.52;;;12.35;;
10381;SDS011;11635;53.636;10.120;2023-02-17T13:06:10;22.23;;;13.48;;
10381;SDS011;11635;53.636;10.120;2023-02-17T13:08:43;20.15;;;12.10;;
10381;SDS011;11635;53.636;10.120;2023-02-17T13:11:12;23.48;;;12.65;;
10381;SDS011;11635;53.636;10.120;2023-02-17T13:13:39;17.33;;;11.27;;
10381;SDS011;11635;53.636;10.120;2023-02-17T13:16:05;20.17;;;11.48;;
10381;SDS011;11635;53.636;10.120;2023-02-17T13:18:33;16.48;;;10.13;;
10381;SDS011;11635;53.636;10.120;2023-02-17T13:21:02;13.75;;;9.40;;
10381;SDS011;11635;53.636;10.120;2023-02-17T13:23:57;15.82;;;9.90;;
10381;SDS011;11635;53.636;10.120;2023-02-17T13:26:25;18.55;;;9.82;;
10381;SDS011;11635;53.636;10.120;2023-02-17T13:28:53;14.32;;;9.65;;
10381;SDS011;11635;53.636;10.120;2023-02-17T13:31:20;15.68;;;9.40;;
10381;SDS011;11635;53.636;10.120;2023-02-17T13:33:49;17.13;;;10.20;;
10381;SDS011;11635;53.636;10.120;2023-02-17T13:36:17;15.85;;;9.40;;
10381;SDS011;11635;53.636;10.120;2023-02-17T13:38:56;15.70;;;9.15;;
10381;SDS011;11635;53.636;10.120;2023-02-17T13:41:24;17.67;;;11.63;;
10381;SDS011;11635;53.636;10.120;2023-02-17T13:43:51;19.55;;;12.10;;
10381;SDS011;11635;53.636;10.120;2023-02-17T13:46:18;22.15;;;11.70;;
10381;SDS011;11635;53.636;10.120;2023-02-17T13:48:56;22.65;;;12.38;;
10381;SDS011;11635;53.636;10.120;2023-02-17T13:51:24;20.85;;;12.60;;
10381;SDS011;11635;53.636;10.120;2023-02-17T13:53:50;18.30;;;12.02;;
10381;SDS011;11635;53.636;10.120;2023-02-17T13:56:23;19.38;;;11.82;;
10381;SDS011;11635;53.636;10.120;2023-02-17T13:58:50;19.92;;;11.65;;
10381;SDS011;11635;53.636;10.120;2023-02-17T14:01:17;19.27;;;12.35;;
10381;SDS011;11635;53.636;10.120;2023-02-17T14:03:45;21.60;;;11.80;;
10381;SDS011;11635;53.636;10.120;2023-02-17T14:06:18;25.23;;;13.40;;
10381;SDS011;11635;53.636;10.120;2023-02-17T14:08:48;21.00;;;11.23;;
10381;SDS011;11635;53.636;10.120;2023-02-17T14:11:15;17.98;;;11.27;;
10381;SDS011;11635;53.636;10.120;2023-02-17T14:13:45;18.35;;;11.52;;
10381;SDS011;11635;53.636;10.120;2023-02-17T14:16:28;23.67;;;11.35;;
10381;SDS011;11635;53.636;10.120;2023-02-17T14:19:02;19.55;;;12.30;;
10381;SDS011;11635;53.636;10.120;2023-02-17T14:21:29;19.25;;;10.57;;
10381;SDS011;11635;53.636;10.120;2023-02-17T14:23:56;16.60;;;8.68;;